Time;durP1;ratioP1;P1;durP2;ratioP2;P2;SDS_P1;SDS_P2;PMS_P1;PMS_P2;Temp;Humidity;BMP_temperature;BMP_pressure;BME280_temperature;BME280_humidity;BME280_pressure;Samples;Min_cycle;Max_cycle;Signal;HPM_P1;HPM_P2
2022/08/08 00:01:44;;;;;;;4.35;1.88;;;;;;;;;;5016146;28;20061;-42
2022/08/08 00:04:15;;;;;;;4.32;1.88;;;;;;;;;;5027765;28;20053;-42
2022/08/08 00:06:46;;;;;;;4.40;1.80;;;;;;;;;;5035588;28;20147;-42
2022/08/08 00:09:18;;;;;;;3.33;1.50;;;;;;;;;;5024212;28;20049;-42
2022/08/08 00:11:56;;;;;;;5.32;2.10;;;;;;;;;;5031124;28;20392;-42
2022/08/08 00:14:25;;;;;;;3.80;1.52;;;;;;;;;;5028795;28;20601;-43
2022/08/08 00:16:56;;;;;;;4.90;1.77;;;;;;;;;;5015097;28;20066;-42
2022/08/08 00:19:27;;;;;;;5.63;2.20;;;;;;;;;;5021958;28;20521;-44
2022/08/08 00:21:56;;;;;;;4.13;1.60;;;;;;;;;;5023030;28;20061;-44
2022/08/08 00:24:26;;;;;;;5.30;1.75;;;;;;;;;;5015395;28;20061;-43
2022/08/08 00:26:59;;;;;;;6.55;1.85;;;;;;;;;;5015361;28;20049;-41
2022/08/08 00:29:29;;;;;;;4.10;1.30;;;;;;;;;;5016693;28;20054;-43
2022/08/08 00:31:58;;;;;;;3.78;1.60;;;;;;;;;;5020515;28;20052;-43
2022/08/08 00:37:32;;;;;;;4.13;1.80;;;;;;;;;;5021702;28;20057;-42
2022/08/08 00:40:11;;;;;;;3.88;1.60;;;;;;;;;;5026204;28;20049;-42
2022/08/08 00:42:52;;;;;;;4.05;2.00;;;;;;;;;;5015583;28;20050;-42
2022/08/08 00:45:30;;;;;;;4.50;1.52;;;;;;;;;;5015202;28;20132;-43
2022/08/08 00:48:18;;;;;;;6.32;1.70;;;;;;;;;;5019297;28;20061;-43
2022/08/08 00:50:57;;;;;;;3.35;1.40;;;;;;;;;;5014605;28;20061;-42
2022/08/08 00:53:38;;;;;;;6.40;1.67;;;;;;;;;;5011324;28;20056;-42
2022/08/08 00:56:23;;;;;;;5.45;1.55;;;;;;;;;;5023758;28;20057;-43
2022/08/08 00:59:07;;;;;;;3.00;1.27;;;;;;;;;;5024231;28;20065;-42
2022/08/08 01:01:40;;;;;;;3.58;1.33;;;;;;;;;;4988022;28;20652;-42
2022/08/08 01:04:27;;;;;;;2.90;1.35;;;;;;;;;;4973743;28;20146;-41
2022/08/08 01:07:14;;;;;;;2.97;1.50;;;;;;;;;;4985888;28;20085;-42
2022/08/08 01:10:03;;;;;;;2.85;1.30;;;;;;;;;;4977721;28;20065;-42
2022/08/08 01:12:51;;;;;;;3.40;1.63;;;;;;;;;;4986644;28;20480;-41
2022/08/08 01:15:41;;;;;;;4.05;1.48;;;;;;;;;;5014365;28;20493;-42
2022/08/08 01:18:26;;;;;;;3.13;1.27;;;;;;;;;;4977781;28;20477;-42
2022/08/08 01:21:11;;;;;;;3.78;1.40;;;;;;;;;;5020136;28;20129;-42
2022/08/08 01:23:56;;;;;;;3.40;1.10;;;;;;;;;;5020836;28;20049;-43
2022/08/08 01:26:36;;;;;;;3.22;1.55;;;;;;;;;;5022999;28;20060;-41
2022/08/08 01:29:22;;;;;;;2.13;0.98;;;;;;;;;;5026333;28;20064;-42
2022/08/08 01:32:20;;;;;;;3.47;1.20;;;;;;;;;;5009177;28;20137;-42
2022/08/08 01:35:05;;;;;;;4.80;1.30;;;;;;;;;;4954042;29;20516;-41
2022/08/08 01:37:58;;;;;;;2.83;1.15;;;;;;;;;;5012498;28;20139;-43
2022/08/08 01:40:36;;;;;;;2.97;1.15;;;;;;;;;;5026150;28;20050;-41
2022/08/08 01:43:06;;;;;;;2.90;1.08;;;;;;;;;;5019776;28;20046;-42
2022/08/08 01:45:54;;;;;;;3.28;1.30;;;;;;;;;;5024788;28;20050;-43
2022/08/08 01:48:48;;;;;;;3.53;1.30;;;;;;;;;;5013821;28;20073;-43
2022/08/08 01:51:29;;;;;;;2.90;0.90;;;;;;;;;;5027326;28;20050;-43
2022/08/08 01:54:05;;;;;;;4.00;1.23;;;;;;;;;;5013749;28;20053;-42
2022/08/08 01:56:42;;;;;;;2.03;1.20;;;;;;;;;;5020867;28;20053;-44
2022/08/08 01:59:17;;;;;;;4.10;1.38;;;;;;;;;;5022606;28;20064;-43
2022/08/08 02:01:56;;;;;;;4.28;1.33;;;;;;;;;;5033850;28;20049;-42
2022/08/08 02:04:28;;;;;;;5.45;1.42;;;;;;;;;;5033481;28;20548;-42
2022/08/08 02:07:02;;;;;;;3.05;1.45;;;;;;;;;;5033894;28;20053;-43
2022/08/08 02:09:38;;;;;;;3.38;1.00;;;;;;;;;;5025306;28;20072;-43
2022/08/08 02:12:08;;;;;;;6.00;1.10;;;;;;;;;;5019491;28;20045;-44
2022/08/08 02:14:39;;;;;;;2.17;1.30;;;;;;;;;;5028275;28;20049;-42
2022/08/08 02:17:10;;;;;;;4.30;1.20;;;;;;;;;;5021438;28;20064;-44
2022/08/08 02:19:45;;;;;;;3.65;1.05;;;;;;;;;;5013852;28;20049;-42
2022/08/08 02:22:31;;;;;;;6.97;1.30;;;;;;;;;;5013664;28;20291;-43
2022/08/08 02:25:09;;;;;;;5.43;1.23;;;;;;;;;;5027950;28;20124;-42
2022/08/08 02:27:52;;;;;;;2.80;1.05;;;;;;;;;;5021958;28;20061;-43
2022/08/08 02:30:20;;;;;;;3.15;1.20;;;;;;;;;;4993621;28;20061;-42
2022/08/08 02:33:05;;;;;;;5.53;1.25;;;;;;;;;;5003963;28;20050;-43
2022/08/08 02:35:55;;;;;;;4.80;1.33;;;;;;;;;;5013254;28;20065;-43
2022/08/08 02:38:44;;;;;;;6.30;1.52;;;;;;;;;;5023423;28;20057;-43
2022/08/08 02:41:27;;;;;;;5.55;1.02;;;;;;;;;;5013338;28;20062;-44
2022/08/08 02:44:11;;;;;;;2.72;0.73;;;;;;;;;;5013465;28;20151;-42
2022/08/08 02:46:46;;;;;;;1.77;0.98;;;;;;;;;;5012985;28;20057;-42
2022/08/08 02:49:41;;;;;;;2.88;1.40;;;;;;;;;;5013539;28;20049;-44
2022/08/08 02:52:32;;;;;;;3.80;1.00;;;;;;;;;;4954601;28;20122;-43
2022/08/08 02:55:11;;;;;;;4.53;1.23;;;;;;;;;;4956510;29;20090;-42
2022/08/08 02:58:06;;;;;;;2.90;0.80;;;;;;;;;;4956300;29;20058;-44
2022/08/08 03:00:50;;;;;;;2.42;0.75;;;;;;;;;;4940064;29;20051;-42
2022/08/08 03:03:45;;;;;;;1.75;0.60;;;;;;;;;;5033582;28;20055;-42
2022/08/08 03:06:33;;;;;;;2.53;0.93;;;;;;;;;;5036920;28;20057;-42
2022/08/08 03:09:31;;;;;;;3.30;1.00;;;;;;;;;;5036544;28;20049;-43
2022/08/08 03:12:13;;;;;;;4.15;1.00;;;;;;;;;;5036864;28;20041;-42
2022/08/08 03:14:45;;;;;;;3.95;1.00;;;;;;;;;;5012934;28;20050;-42
2022/08/08 03:17:16;;;;;;;2.55;0.70;;;;;;;;;;5026260;28;20385;-43
2022/08/08 03:20:02;;;;;;;3.75;1.13;;;;;;;;;;5036812;28;20061;-43
2022/08/08 03:22:31;;;;;;;2.47;1.08;;;;;;;;;;5028911;28;20060;-43
2022/08/08 03:25:18;;;;;;;3.17;1.00;;;;;;;;;;5017072;28;20050;-43
2022/08/08 03:27:46;;;;;;;3.08;1.00;;;;;;;;;;5016834;28;20060;-44
2022/08/08 03:30:14;;;;;;;3.08;0.80;;;;;;;;;;5016348;28;20061;-43
2022/08/08 03:35:30;;;;;;;1.83;0.82;;;;;;;;;;5016582;28;20060;-44
2022/08/08 03:38:00;;;;;;;2.03;0.70;;;;;;;;;;5016080;28;20065;-42
2022/08/08 03:40:38;;;;;;;5.75;1.40;;;;;;;;;;5003474;28;20055;-42
2022/08/08 03:43:14;;;;;;;2.00;0.95;;;;;;;;;;5036165;28;20076;-42
2022/08/08 03:45:41;;;;;;;4.30;1.13;;;;;;;;;;5029983;28;20540;-43
2022/08/08 03:48:10;;;;;;;4.43;1.42;;;;;;;;;;5016513;28;20050;-44
2022/08/08 03:50:37;;;;;;;2.78;0.80;;;;;;;;;;5016520;28;20050;-42
2022/08/08 03:53:16;;;;;;;2.63;0.75;;;;;;;;;;5015566;28;20042;-42
2022/08/08 03:55:47;;;;;;;3.40;1.08;;;;;;;;;;5016031;28;20115;-42
2022/08/08 03:58:28;;;;;;;3.70;1.05;;;;;;;;;;5015992;28;20045;-42
2022/08/08 04:00:56;;;;;;;5.40;1.02;;;;;;;;;;5016054;28;20046;-42
2022/08/08 04:03:24;;;;;;;2.28;1.00;;;;;;;;;;5015335;28;20058;-42
2022/08/08 04:05:54;;;;;;;2.85;0.68;;;;;;;;;;5015887;28;20056;-42
2022/08/08 04:08:24;;;;;;;4.10;0.98;;;;;;;;;;5016255;28;20054;-42
2022/08/08 04:10:53;;;;;;;3.95;1.00;;;;;;;;;;5015753;28;20482;-43
2022/08/08 04:13:20;;;;;;;1.95;1.15;;;;;;;;;;5015535;28;20066;-43
2022/08/08 04:15:50;;;;;;;3.35;0.80;;;;;;;;;;5014738;28;20481;-42
2022/08/08 04:18:20;;;;;;;5.00;1.30;;;;;;;;;;5015520;28;20061;-47
2022/08/08 04:20:47;;;;;;;3.03;1.10;;;;;;;;;;5015645;28;20096;-44
2022/08/08 04:23:17;;;;;;;3.70;1.02;;;;;;;;;;5015675;28;20069;-42
2022/08/08 04:28:37;;;;;;;2.25;0.98;;;;;;;;;;5015646;28;20077;-43
2022/08/08 04:31:03;;;;;;;2.65;1.10;;;;;;;;;;5015316;28;20068;-42
2022/08/08 04:33:34;;;;;;;5.15;1.40;;;;;;;;;;5020549;28;20055;-42
2022/08/08 04:36:05;;;;;;;2.00;0.88;;;;;;;;;;5035405;28;20065;-43
2022/08/08 04:38:35;;;;;;;2.90;0.88;;;;;;;;;;5033627;28;20099;-43
2022/08/08 04:41:05;;;;;;;1.58;0.90;;;;;;;;;;5015429;28;20088;-42
2022/08/08 04:43:48;;;;;;;2.45;0.90;;;;;;;;;;5015423;28;20050;-44
2022/08/08 04:46:16;;;;;;;2.10;0.95;;;;;;;;;;5015255;28;20143;-43
2022/08/08 04:48:46;;;;;;;2.10;0.90;;;;;;;;;;5014376;28;20188;-42
2022/08/08 04:51:12;;;;;;;6.38;1.10;;;;;;;;;;5014990;28;20069;-42
2022/08/08 04:53:42;;;;;;;3.70;1.13;;;;;;;;;;5015000;28;20052;-42
2022/08/08 04:56:11;;;;;;;6.53;1.60;;;;;;;;;;5015145;28;20100;-42
2022/08/08 04:58:43;;;;;;;2.85;0.90;;;;;;;;;;5015110;28;20141;-43
2022/08/08 05:01:12;;;;;;;2.72;1.00;;;;;;;;;;5014875;28;20074;-42
2022/08/08 05:03:41;;;;;;;3.20;0.88;;;;;;;;;;5014613;28;20054;-43
2022/08/08 05:06:11;;;;;;;7.65;1.45;;;;;;;;;;5015005;28;20108;-42
2022/08/08 05:08:40;;;;;;;6.53;1.27;;;;;;;;;;5024638;28;20508;-44
2022/08/08 05:11:12;;;;;;;5.63;0.93;;;;;;;;;;5014951;28;20053;-42
2022/08/08 05:13:43;;;;;;;1.55;0.90;;;;;;;;;;5014256;28;20042;-43
2022/08/08 05:16:09;;;;;;;7.10;1.05;;;;;;;;;;5014168;28;20105;-42
2022/08/08 05:18:37;;;;;;;3.28;1.13;;;;;;;;;;5014687;28;20057;-43
2022/08/08 05:21:07;;;;;;;13.57;1.30;;;;;;;;;;5014130;28;20050;-41
2022/08/08 05:23:37;;;;;;;5.97;1.42;;;;;;;;;;5016400;28;20049;-43
2022/08/08 05:26:05;;;;;;;4.40;0.90;;;;;;;;;;5014670;28;20069;-42
2022/08/08 05:28:36;;;;;;;2.22;1.00;;;;;;;;;;5014410;28;20140;-44
2022/08/08 05:31:13;;;;;;;4.03;1.73;;;;;;;;;;5014428;28;20413;-42
2022/08/08 05:33:40;;;;;;;7.05;1.20;;;;;;;;;;5014415;28;20133;-41
2022/08/08 05:36:12;;;;;;;4.88;1.10;;;;;;;;;;5014290;28;20478;-42
2022/08/08 05:38:42;;;;;;;4.20;1.10;;;;;;;;;;5014730;28;20089;-43
2022/08/08 05:41:11;;;;;;;2.67;0.90;;;;;;;;;;5015076;28;20060;-42
2022/08/08 05:43:42;;;;;;;7.38;1.23;;;;;;;;;;5024549;28;20654;-44
2022/08/08 05:46:19;;;;;;;2.75;0.90;;;;;;;;;;5004257;28;20054;-43
2022/08/08 05:48:49;;;;;;;3.95;0.90;;;;;;;;;;5032568;28;20072;-42
2022/08/08 05:51:16;;;;;;;6.57;0.88;;;;;;;;;;5033731;28;20462;-43
2022/08/08 05:53:47;;;;;;;5.43;1.20;;;;;;;;;;5021027;28;20049;-42
2022/08/08 05:56:24;;;;;;;9.57;2.45;;;;;;;;;;5014357;28;20064;-42
2022/08/08 05:58:55;;;;;;;10.20;1.38;;;;;;;;;;5015112;28;20069;-42
2022/08/08 06:01:25;;;;;;;6.70;1.20;;;;;;;;;;5028459;28;20112;-42
2022/08/08 06:03:54;;;;;;;6.35;1.30;;;;;;;;;;5024490;28;20048;-42
2022/08/08 06:06:27;;;;;;;5.10;1.35;;;;;;;;;;5016684;28;20370;-43
2022/08/08 06:09:05;;;;;;;2.47;1.00;;;;;;;;;;5025908;28;20818;-42
2022/08/08 06:11:34;;;;;;;3.33;1.00;;;;;;;;;;5033792;28;20065;-42
2022/08/08 06:14:05;;;;;;;5.07;1.00;;;;;;;;;;5032447;28;20049;-43
2022/08/08 06:16:40;;;;;;;1.90;0.70;;;;;;;;;;5014048;28;20057;-42
2022/08/08 06:19:11;;;;;;;1.77;0.75;;;;;;;;;;5015610;28;20460;-41
2022/08/08 06:21:38;;;;;;;2.25;0.82;;;;;;;;;;5013558;28;20112;-42
2022/08/08 06:24:08;;;;;;;6.60;0.93;;;;;;;;;;5023846;28;20049;-42
2022/08/08 06:26:41;;;;;;;6.70;1.00;;;;;;;;;;5033301;28;20062;-42
2022/08/08 06:29:09;;;;;;;2.33;0.70;;;;;;;;;;5022730;28;20470;-42
2022/08/08 06:31:42;;;;;;;3.75;0.80;;;;;;;;;;5025936;28;20368;-43
2022/08/08 06:34:14;;;;;;;5.63;0.80;;;;;;;;;;5025692;28;20138;-42
2022/08/08 06:36:42;;;;;;;3.10;0.70;;;;;;;;;;5022043;28;20057;-43
2022/08/08 06:39:19;;;;;;;2.30;0.77;;;;;;;;;;5032289;28;20052;-42
2022/08/08 06:41:50;;;;;;;7.45;1.10;;;;;;;;;;5034198;28;20045;-43
2022/08/08 06:44:20;;;;;;;4.65;1.10;;;;;;;;;;5032510;28;20045;-41
2022/08/08 06:47:01;;;;;;;4.88;1.10;;;;;;;;;;5026220;28;20144;-42
2022/08/08 06:49:30;;;;;;;3.10;1.58;;;;;;;;;;5028043;28;20141;-45
2022/08/08 06:52:01;;;;;;;6.25;1.30;;;;;;;;;;5021279;28;20386;-44
2022/08/08 06:54:28;;;;;;;3.33;1.08;;;;;;;;;;5030648;28;20045;-43
2022/08/08 06:56:58;;;;;;;4.95;0.80;;;;;;;;;;5033126;28;20054;-44
2022/08/08 06:59:27;;;;;;;2.78;0.70;;;;;;;;;;5023998;28;20050;-43
2022/08/08 07:02:00;;;;;;;3.05;0.90;;;;;;;;;;5011827;28;20063;-43
2022/08/08 07:04:31;;;;;;;3.50;1.00;;;;;;;;;;5033543;28;20088;-43
2022/08/08 07:07:03;;;;;;;7.80;1.35;;;;;;;;;;5033641;28;20054;-43
2022/08/08 07:09:45;;;;;;;6.30;1.00;;;;;;;;;;5031001;28;20381;-43
2022/08/08 07:12:14;;;;;;;6.60;1.17;;;;;;;;;;5025512;28;20143;-43
2022/08/08 07:14:49;;;;;;;2.67;1.20;;;;;;;;;;5021653;28;20056;-44
2022/08/08 07:17:21;;;;;;;6.90;1.27;;;;;;;;;;5033024;28;20489;-43
2022/08/08 07:19:56;;;;;;;2.42;1.10;;;;;;;;;;5026393;28;20054;-43
2022/08/08 07:22:30;;;;;;;3.88;1.13;;;;;;;;;;5013608;28;20053;-42
2022/08/08 07:25:00;;;;;;;6.10;1.48;;;;;;;;;;5013209;28;20068;-41
2022/08/08 07:27:34;;;;;;;5.97;1.65;;;;;;;;;;5013746;28;20054;-42
2022/08/08 07:30:02;;;;;;;8.13;1.58;;;;;;;;;;5020455;28;20076;-43
2022/08/08 07:32:36;;;;;;;6.40;1.38;;;;;;;;;;5033348;28;20053;-44
2022/08/08 07:35:14;;;;;;;5.88;1.30;;;;;;;;;;5033432;28;20049;-42
2022/08/08 07:37:44;;;;;;;6.05;1.23;;;;;;;;;;5032062;28;20370;-44
2022/08/08 07:40:13;;;;;;;4.60;1.15;;;;;;;;;;5030781;28;20058;-42
2022/08/08 07:42:43;;;;;;;6.60;1.38;;;;;;;;;;5037398;28;20060;-42
2022/08/08 07:45:11;;;;;;;4.30;1.40;;;;;;;;;;5034908;28;20049;-43
2022/08/08 07:47:42;;;;;;;4.07;1.25;;;;;;;;;;5024181;28;20049;-44
2022/08/08 07:50:12;;;;;;;3.03;0.95;;;;;;;;;;5037095;28;20049;-42
2022/08/08 07:52:42;;;;;;;4.88;0.98;;;;;;;;;;5026737;28;20053;-42
2022/08/08 07:55:14;;;;;;;4.63;1.05;;;;;;;;;;5024286;28;20037;-42
2022/08/08 07:57:45;;;;;;;2.60;0.75;;;;;;;;;;5027262;28;20089;-42
2022/08/08 08:00:15;;;;;;;7.40;1.17;;;;;;;;;;5032503;28;20450;-41
2022/08/08 08:02:46;;;;;;;5.15;1.02;;;;;;;;;;5025352;28;20049;-42
2022/08/08 08:05:18;;;;;;;5.20;1.05;;;;;;;;;;5031163;28;20064;-42
2022/08/08 08:07:51;;;;;;;3.50;1.17;;;;;;;;;;5035892;28;20060;-41
2022/08/08 08:10:19;;;;;;;4.57;1.02;;;;;;;;;;5026086;28;20627;-42
2022/08/08 08:12:54;;;;;;;5.20;0.88;;;;;;;;;;5016587;28;20058;-43
2022/08/08 08:15:25;;;;;;;3.15;0.80;;;;;;;;;;5031913;28;20069;-42
2022/08/08 08:18:00;;;;;;;3.80;0.70;;;;;;;;;;5029283;28;20458;-41
2022/08/08 08:20:28;;;;;;;12.10;1.13;;;;;;;;;;5034463;28;20457;-41
2022/08/08 08:22:57;;;;;;;4.47;0.88;;;;;;;;;;5026318;28;20057;-43
2022/08/08 08:25:26;;;;;;;2.67;0.90;;;;;;;;;;5010366;28;20073;-41
2022/08/08 08:27:54;;;;;;;8.25;1.33;;;;;;;;;;5023486;28;20053;-42
2022/08/08 08:30:23;;;;;;;5.35;1.20;;;;;;;;;;5020266;28;20062;-43
2022/08/08 08:32:52;;;;;;;3.22;0.73;;;;;;;;;;5034710;28;20053;-43
2022/08/08 08:35:23;;;;;;;2.90;0.88;;;;;;;;;;5034314;28;20041;-41
2022/08/08 08:37:51;;;;;;;5.57;0.80;;;;;;;;;;5030855;28;20139;-43
2022/08/08 08:40:18;;;;;;;3.60;0.80;;;;;;;;;;5020923;28;20069;-43
2022/08/08 08:42:49;;;;;;;3.28;0.93;;;;;;;;;;5029210;28;20343;-45
2022/08/08 08:45:20;;;;;;;2.45;0.65;;;;;;;;;;5032798;28;20419;-43
2022/08/08 08:47:48;;;;;;;3.58;0.93;;;;;;;;;;5022802;28;20059;-42
2022/08/08 08:50:17;;;;;;;10.10;1.27;;;;;;;;;;5026489;28;20362;-45
2022/08/08 08:52:46;;;;;;;6.95;1.15;;;;;;;;;;5015630;28;20053;-43
2022/08/08 08:55:14;;;;;;;3.33;0.80;;;;;;;;;;5034744;28;20049;-45
2022/08/08 08:57:44;;;;;;;2.15;0.88;;;;;;;;;;5035035;28;20053;-43
2022/08/08 09:00:13;;;;;;;3.22;1.02;;;;;;;;;;5035778;28;20076;-44
2022/08/08 09:02:42;;;;;;;3.97;1.13;;;;;;;;;;5028158;28;20060;-42
2022/08/08 09:05:11;;;;;;;3.08;1.00;;;;;;;;;;5035677;28;20077;-44
2022/08/08 09:07:48;;;;;;;2.10;0.93;;;;;;;;;;5016649;28;20057;-44
2022/08/08 09:10:19;;;;;;;4.30;1.00;;;;;;;;;;5034249;28;20049;-45
2022/08/08 09:12:49;;;;;;;2.83;1.10;;;;;;;;;;5024522;28;20062;-43
2022/08/08 09:15:16;;;;;;;3.33;1.00;;;;;;;;;;5018505;28;20136;-42
2022/08/08 09:17:44;;;;;;;3.42;1.30;;;;;;;;;;5034778;28;20057;-44
2022/08/08 09:20:15;;;;;;;3.40;1.10;;;;;;;;;;5035031;28;20050;-42
2022/08/08 09:22:44;;;;;;;3.88;1.10;;;;;;;;;;5025049;28;20049;-41
2022/08/08 09:25:10;;;;;;;7.20;2.10;;;;;;;;;;5013459;28;20054;-43
2022/08/08 09:27:45;;;;;;;14.13;2.90;;;;;;;;;;5013930;28;20060;-44
2022/08/08 09:30:16;;;;;;;6.85;2.25;;;;;;;;;;5025474;28;20056;-43
2022/08/08 09:32:46;;;;;;;7.93;1.83;;;;;;;;;;5034414;28;20367;-41
2022/08/08 09:35:27;;;;;;;6.43;1.70;;;;;;;;;;5034737;28;20045;-43
2022/08/08 09:38:01;;;;;;;7.32;2.03;;;;;;;;;;5034344;28;20136;-43
2022/08/08 09:40:30;;;;;;;8.57;1.33;;;;;;;;;;5012735;28;20060;-42
2022/08/08 09:43:09;;;;;;;6.20;1.35;;;;;;;;;;5014730;28;20490;-42
2022/08/08 09:46:07;;;;;;;4.30;1.70;;;;;;;;;;5019153;28;20073;-41
2022/08/08 09:48:37;;;;;;;8.35;2.28;;;;;;;;;;5014974;28;20069;-42
2022/08/08 09:51:05;;;;;;;8.25;2.10;;;;;;;;;;5015181;28;20045;-42
2022/08/08 09:53:41;;;;;;;6.75;1.92;;;;;;;;;;5014342;28;20473;-42
2022/08/08 09:56:13;;;;;;;5.65;1.67;;;;;;;;;;5015208;28;20054;-41
2022/08/08 09:58:59;;;;;;;10.10;3.33;;;;;;;;;;5024381;28;20053;-42
2022/08/08 10:01:31;;;;;;;11.15;2.10;;;;;;;;;;5019043;28;20068;-43
2022/08/08 10:03:58;;;;;;;3.38;1.50;;;;;;;;;;5014948;28;20046;-44
2022/08/08 10:06:28;;;;;;;7.20;1.65;;;;;;;;;;5002144;28;20463;-42
2022/08/08 10:08:58;;;;;;;5.55;1.98;;;;;;;;;;5014408;28;20045;-44
2022/08/08 10:11:27;;;;;;;9.07;2.03;;;;;;;;;;5007142;28;20054;-43
2022/08/08 10:13:58;;;;;;;4.82;1.55;;;;;;;;;;5009996;28;20141;-43
2022/08/08 10:16:37;;;;;;;13.25;2.53;;;;;;;;;;5020202;28;20057;-44
2022/08/08 10:19:06;;;;;;;4.57;1.65;;;;;;;;;;5022929;28;20056;-44
2022/08/08 10:21:34;;;;;;;7.93;1.60;;;;;;;;;;5021081;28;20136;-42
2022/08/08 10:24:11;;;;;;;4.28;1.50;;;;;;;;;;5021707;28;20114;-43
2022/08/08 10:26:39;;;;;;;4.65;1.38;;;;;;;;;;5025134;28;20132;-42
2022/08/08 10:29:10;;;;;;;2.38;1.48;;;;;;;;;;5027027;28;20069;-43
2022/08/08 10:34:24;;;;;;;5.90;1.65;;;;;;;;;;5024893;28;20060;-45
2022/08/08 10:36:52;;;;;;;4.45;1.48;;;;;;;;;;5020232;28;20057;-43
2022/08/08 10:39:21;;;;;;;4.80;1.13;;;;;;;;;;5028934;28;20049;-44
2022/08/08 10:41:57;;;;;;;3.63;1.50;;;;;;;;;;5022967;28;20461;-42
2022/08/08 10:44:35;;;;;;;5.72;1.65;;;;;;;;;;5021851;28;20054;-46
2022/08/08 10:47:17;;;;;;;5.38;2.20;;;;;;;;;;5012933;28;20108;-45
2022/08/08 10:49:52;;;;;;;2.70;1.38;;;;;;;;;;5018519;28;20129;-43
2022/08/08 10:52:27;;;;;;;7.72;1.58;;;;;;;;;;5018654;28;20442;-43
2022/08/08 10:54:56;;;;;;;6.68;1.40;;;;;;;;;;5027121;28;20049;-44
2022/08/08 10:57:25;;;;;;;4.20;1.27;;;;;;;;;;5021548;28;20444;-43
2022/08/08 11:00:03;;;;;;;3.67;1.45;;;;;;;;;;5011267;28;20496;-42
2022/08/08 11:02:30;;;;;;;5.78;1.67;;;;;;;;;;5013462;28;20077;-44
2022/08/08 11:05:01;;;;;;;1.85;1.05;;;;;;;;;;5010401;28;20041;-43
2022/08/08 11:07:30;;;;;;;9.45;1.63;;;;;;;;;;5026781;28;20337;-46
2022/08/08 11:10:24;;;;;;;4.72;1.73;;;;;;;;;;5016371;28;20053;-43
2022/08/08 11:12:55;;;;;;;3.10;1.70;;;;;;;;;;5028920;28;20065;-43
2022/08/08 11:15:32;;;;;;;6.20;1.73;;;;;;;;;;5024312;28;20054;-44
2022/08/08 11:18:03;;;;;;;2.70;1.20;;;;;;;;;;5025532;28;20060;-43
2022/08/08 11:20:31;;;;;;;3.38;1.63;;;;;;;;;;5020335;28;20058;-44
2022/08/08 11:22:59;;;;;;;4.10;1.48;;;;;;;;;;5025937;28;20054;-43
2022/08/08 11:25:30;;;;;;;4.18;1.17;;;;;;;;;;5019703;28;20455;-42
2022/08/08 11:28:00;;;;;;;3.50;1.40;;;;;;;;;;5026165;28;20061;-42
2022/08/08 11:30:44;;;;;;;9.88;1.70;;;;;;;;;;5018525;28;20058;-44
2022/08/08 11:33:11;;;;;;;7.68;1.75;;;;;;;;;;5018348;28;20054;-43
2022/08/08 11:35:37;;;;;;;7.65;2.03;;;;;;;;;;5018862;28;20081;-43
2022/08/08 11:38:08;;;;;;;5.28;1.70;;;;;;;;;;5016579;28;20042;-42
2022/08/08 11:40:38;;;;;;;4.55;1.60;;;;;;;;;;5029687;28;20050;-42
2022/08/08 11:43:07;;;;;;;4.68;1.67;;;;;;;;;;5025395;28;20050;-44
2022/08/08 11:45:50;;;;;;;4.38;1.70;;;;;;;;;;5021093;28;20045;-43
2022/08/08 11:48:19;;;;;;;5.07;1.95;;;;;;;;;;5017506;28;20054;-43
2022/08/08 11:50:46;;;;;;;3.30;1.40;;;;;;;;;;5024814;28;20057;-43
2022/08/08 11:53:17;;;;;;;4.82;1.30;;;;;;;;;;5012815;28;20050;-43
2022/08/08 11:55:49;;;;;;;4.30;1.85;;;;;;;;;;5017364;28;20394;-44
2022/08/08 11:58:16;;;;;;;3.65;1.60;;;;;;;;;;5028629;28;20136;-43
2022/08/08 12:00:47;;;;;;;2.63;1.27;;;;;;;;;;5014789;28;20064;-42
2022/08/08 12:03:17;;;;;;;4.63;1.60;;;;;;;;;;5016567;28;20544;-43
2022/08/08 12:05:45;;;;;;;5.50;1.75;;;;;;;;;;5029680;28;20045;-43
2022/08/08 12:08:15;;;;;;;8.02;2.03;;;;;;;;;;5013257;28;20111;-44
2022/08/08 12:10:50;;;;;;;6.95;1.50;;;;;;;;;;5019291;28;20056;-41
2022/08/08 12:13:24;;;;;;;5.75;1.15;;;;;;;;;;5025698;28;20354;-43
2022/08/08 12:16:08;;;;;;;6.53;1.57;;;;;;;;;;5023259;28;20417;-43
2022/08/08 12:18:48;;;;;;;4.83;1.20;;;;;;;;;;5029776;28;20119;-41
2022/08/08 12:21:21;;;;;;;6.00;1.35;;;;;;;;;;5021393;28;20300;-43
2022/08/08 12:23:49;;;;;;;4.03;2.33;;;;;;;;;;5016609;28;20065;-44
2022/08/08 12:26:18;;;;;;;4.85;1.73;;;;;;;;;;5033247;28;20069;-41
2022/08/08 12:28:56;;;;;;;5.30;1.75;;;;;;;;;;5026137;28;20057;-43
2022/08/08 12:31:39;;;;;;;4.18;1.33;;;;;;;;;;5031249;28;20081;-41
2022/08/08 12:34:09;;;;;;;5.72;1.80;;;;;;;;;;5030893;28;20072;-42
2022/08/08 12:36:39;;;;;;;10.45;2.10;;;;;;;;;;5003314;28;20053;-42
2022/08/08 12:39:10;;;;;;;6.72;2.47;;;;;;;;;;5018562;28;20141;-43
2022/08/08 12:41:37;;;;;;;8.02;1.90;;;;;;;;;;5019766;28;20061;-42
2022/08/08 12:44:07;;;;;;;6.03;1.90;;;;;;;;;;5015858;28;20049;-41
2022/08/08 12:46:56;;;;;;;4.85;2.10;;;;;;;;;;5015825;28;20041;-42
2022/08/08 12:49:27;;;;;;;4.70;1.90;;;;;;;;;;5024508;28;20057;-43
2022/08/08 12:51:53;;;;;;;6.45;1.90;;;;;;;;;;5023303;28;20053;-43
2022/08/08 12:54:31;;;;;;;5.13;2.08;;;;;;;;;;5026656;28;20053;-41
2022/08/08 12:57:01;;;;;;;5.65;1.88;;;;;;;;;;5024472;28;20464;-48
2022/08/08 12:59:32;;;;;;;3.53;1.80;;;;;;;;;;5021738;28;20768;-49
2022/08/08 13:02:09;;;;;;;5.53;1.90;;;;;;;;;;5012463;28;20058;-48
2022/08/08 13:04:45;;;;;;;7.30;1.77;;;;;;;;;;5014452;28;20058;-48
2022/08/08 13:07:15;;;;;;;6.10;1.95;;;;;;;;;;5019213;28;20069;-45
2022/08/08 13:09:43;;;;;;;4.82;1.80;;;;;;;;;;5016390;28;20056;-47
2022/08/08 13:12:15;;;;;;;3.88;1.83;;;;;;;;;;5018228;28;20069;-46
2022/08/08 13:14:47;;;;;;;19.50;3.85;;;;;;;;;;5023789;28;20057;-47
2022/08/08 13:17:22;;;;;;;9.57;2.28;;;;;;;;;;5013846;28;20058;-49
2022/08/08 13:19:49;;;;;;;5.72;2.15;;;;;;;;;;5018905;28;20054;-46
2022/08/08 13:22:16;;;;;;;2.95;1.88;;;;;;;;;;5015732;28;20068;-45
2022/08/08 13:24:44;;;;;;;3.58;1.98;;;;;;;;;;5016995;28;20465;-45
2022/08/08 13:27:14;;;;;;;4.13;2.15;;;;;;;;;;5013699;28;20049;-48
2022/08/08 13:29:51;;;;;;;2.95;2.10;;;;;;;;;;5024018;28;20057;-45
2022/08/08 13:32:37;;;;;;;4.40;2.10;;;;;;;;;;5020581;28;20046;-44
2022/08/08 13:35:06;;;;;;;3.17;2.28;;;;;;;;;;5022771;28;20046;-47
2022/08/08 13:37:33;;;;;;;4.15;2.08;;;;;;;;;;5020441;28;20054;-44
2022/08/08 13:40:02;;;;;;;3.15;1.88;;;;;;;;;;5019710;28;20062;-47
2022/08/08 13:42:29;;;;;;;4.72;2.05;;;;;;;;;;5019473;28;20536;-45
2022/08/08 13:44:57;;;;;;;4.00;2.20;;;;;;;;;;5026276;28;20045;-45
2022/08/08 13:47:25;;;;;;;3.80;2.28;;;;;;;;;;5016738;28;20057;-44
2022/08/08 13:50:00;;;;;;;5.10;2.22;;;;;;;;;;5025549;28;20112;-44
2022/08/08 13:52:28;;;;;;;3.60;2.33;;;;;;;;;;5020693;28;20064;-46
2022/08/08 13:54:56;;;;;;;4.80;2.20;;;;;;;;;;5023869;28;20046;-48
2022/08/08 13:57:26;;;;;;;4.43;1.88;;;;;;;;;;5019314;28;20440;-46
2022/08/08 14:00:03;;;;;;;9.20;2.03;;;;;;;;;;5027728;28;20058;-47
2022/08/08 14:02:45;;;;;;;7.05;2.30;;;;;;;;;;5020388;28;20068;-47
2022/08/08 14:05:15;;;;;;;11.90;3.33;;;;;;;;;;5033522;28;20366;-47
2022/08/08 14:07:46;;;;;;;4.93;2.20;;;;;;;;;;4998068;28;20082;-46
2022/08/08 14:10:18;;;;;;;4.32;2.13;;;;;;;;;;5019622;28;20053;-45
2022/08/08 14:12:46;;;;;;;9.82;2.20;;;;;;;;;;4996160;28;20081;-45
2022/08/08 14:15:35;;;;;;;45.95;5.32;;;;;;;;;;5007929;28;20037;-46
2022/08/08 14:18:25;;;;;;;3.60;2.00;;;;;;;;;;5027095;28;20529;-47
2022/08/08 14:21:11;;;;;;;3.25;1.88;;;;;;;;;;5023552;28;20140;-44
2022/08/08 14:23:41;;;;;;;7.30;2.38;;;;;;;;;;5015373;28;20060;-46
2022/08/08 14:26:10;;;;;;;9.55;2.47;;;;;;;;;;5024946;28;20046;-45
2022/08/08 14:28:38;;;;;;;4.88;2.10;;;;;;;;;;5013701;28;20045;-46
2022/08/08 14:31:11;;;;;;;4.40;2.20;;;;;;;;;;5026121;28;20053;-45
2022/08/08 14:33:43;;;;;;;6.97;2.40;;;;;;;;;;5013656;28;20509;-45
2022/08/08 14:36:12;;;;;;;4.47;2.35;;;;;;;;;;5013751;28;20068;-45
2022/08/08 14:38:49;;;;;;;2.97;2.00;;;;;;;;;;5032909;28;20056;-47
2022/08/08 14:41:19;;;;;;;3.72;2.22;;;;;;;;;;5015216;28;20054;-43
2022/08/08 14:43:47;;;;;;;2.85;1.98;;;;;;;;;;5013453;28;20062;-42
2022/08/08 14:46:15;;;;;;;2.15;1.50;;;;;;;;;;5014399;28;20045;-41
2022/08/08 14:48:52;;;;;;;4.88;2.30;;;;;;;;;;5023173;28;20057;-42
2022/08/08 14:54:02;;;;;;;5.00;2.10;;;;;;;;;;5000260;28;20477;-41
2022/08/08 14:56:30;;;;;;;4.50;2.25;;;;;;;;;;5000575;28;20050;-42
2022/08/08 14:58:58;;;;;;;6.10;2.70;;;;;;;;;;5000731;28;20056;-42
2022/08/08 15:01:29;;;;;;;3.25;2.08;;;;;;;;;;5000499;28;20086;-42
2022/08/08 15:04:01;;;;;;;5.15;2.40;;;;;;;;;;5018226;28;20060;-41
2022/08/08 15:06:30;;;;;;;14.25;2.90;;;;;;;;;;5025075;28;20064;-42
2022/08/08 15:08:59;;;;;;;4.90;2.42;;;;;;;;;;5036443;28;20093;-42
2022/08/08 15:11:26;;;;;;;4.32;2.38;;;;;;;;;;5009787;28;20057;-41
2022/08/08 15:13:54;;;;;;;4.00;2.10;;;;;;;;;;5025496;28;20053;-43
2022/08/08 15:16:20;;;;;;;5.13;2.50;;;;;;;;;;5023654;28;20116;-44
2022/08/08 15:18:50;;;;;;;7.03;2.20;;;;;;;;;;5021833;28;20054;-42
2022/08/08 15:21:20;;;;;;;4.38;2.38;;;;;;;;;;5025030;28;20136;-41
2022/08/08 15:23:50;;;;;;;5.63;2.65;;;;;;;;;;5024535;28;20140;-41
2022/08/08 15:26:31;;;;;;;5.57;2.58;;;;;;;;;;5028186;28;20058;-44
2022/08/08 15:29:01;;;;;;;5.35;2.53;;;;;;;;;;5028524;28;20049;-43
2022/08/08 15:31:31;;;;;;;7.68;2.40;;;;;;;;;;5022980;28;20053;-44
2022/08/08 15:33:58;;;;;;;3.70;2.22;;;;;;;;;;5028080;28;20064;-45